Time;durP1;ratioP1;P1;durP2;ratioP2;P2;SDS_P1;SDS_P2;PMS_P1;PMS_P2;Temp;Humidity;BMP_temperature;BMP_pressure;BME280_temperature;BME280_humidity;BME280_pressure;Samples;Min_cycle;Max_cycle;Signal;HPM_P1;HPM_P2
2023/11/13 00:01:40;;;;;;;1.70;1.60;;;;;;;6.79;79.61;100170.25;5035780;28;20297;-84
2023/11/13 00:04:06;;;;;;;3.83;1.80;;;;;;;6.78;79.65;100170.25;5035481;28;20639;-84
2023/11/13 00:06:33;;;;;;;2.70;1.90;;;;;;;6.76;80.21;100165.94;5035190;28;20217;-85
2023/11/13 00:08:59;;;;;;;1.83;1.70;;;;;;;6.78;79.70;100162.47;5036050;28;20225;-85
2023/11/13 00:11:26;;;;;;;2.33;1.80;;;;;;;6.79;79.61;100156.41;5035202;28;20239;-85
2023/11/13 00:13:53;;;;;;;3.07;1.97;;;;;;;6.70;80.14;100139.19;5035678;28;20208;-86
2023/11/13 00:16:20;;;;;;;3.43;1.80;;;;;;;6.67;80.54;100119.31;5036181;28;20315;-84
2023/11/13 00:18:46;;;;;;;2.67;1.50;;;;;;;6.67;81.02;100110.69;5036304;28;20206;-86
2023/11/13 00:21:15;;;;;;;2.43;1.80;;;;;;;6.69;80.68;100106.34;5037256;28;20254;-86
2023/11/13 00:23:43;;;;;;;4.60;1.83;;;;;;;6.71;79.76;100109.78;5036637;28;20603;-86
2023/11/13 00:26:09;;;;;;;2.70;1.70;;;;;;;6.66;79.87;100109.84;5036362;28;20194;-83
2023/11/13 00:28:36;;;;;;;4.63;1.70;;;;;;;6.64;80.06;100119.38;5036580;28;20214;-85
2023/11/13 00:31:04;;;;;;;4.67;1.97;;;;;;;6.62;81.30;100104.66;5037488;28;20233;-85
2023/11/13 00:33:30;;;;;;;5.23;2.40;;;;;;;6.63;80.79;100096.03;5035765;28;20210;-84
2023/11/13 00:35:57;;;;;;;2.63;1.93;;;;;;;6.63;80.74;100103.81;5035843;28;20249;-86
2023/11/13 00:38:23;;;;;;;4.70;1.70;;;;;;;6.62;80.74;100096.88;5036114;28;20227;-85
2023/11/13 00:40:50;;;;;;;2.27;1.80;;;;;;;6.53;81.23;100096.09;5037566;28;20237;-85
2023/11/13 00:43:17;;;;;;;3.27;1.80;;;;;;;6.52;81.31;100086.63;5035849;28;20245;-83
2023/11/13 00:45:43;;;;;;;2.50;2.17;;;;;;;6.50;81.83;100083.19;5034763;28;20198;-86
2023/11/13 00:48:11;;;;;;;3.40;1.97;;;;;;;6.51;81.16;100084.03;5034778;28;20201;-86
2023/11/13 00:50:38;;;;;;;3.93;2.10;;;;;;;6.50;81.34;100079.69;5034758;28;20576;-87
2023/11/13 00:53:04;;;;;;;1.97;1.87;;;;;;;6.51;80.19;100079.69;5034411;28;20590;-86
2023/11/13 00:55:31;;;;;;;2.73;2.53;;;;;;;6.49;80.74;100072.81;5036336;28;20226;-84
2023/11/13 00:57:57;;;;;;;2.23;2.03;;;;;;;6.42;80.68;100064.22;5036432;28;20205;-85
2023/11/13 01:00:24;;;;;;;6.00;3.57;;;;;;;6.42;80.90;100066.81;5036057;28;20232;-86
2023/11/13 01:02:51;;;;;;;3.17;2.20;;;;;;;6.41;80.68;100083.22;5035817;28;20238;-86
2023/11/13 01:05:19;;;;;;;2.93;2.70;;;;;;;6.41;81.20;100100.53;5036323;28;20296;-84
2023/11/13 01:07:46;;;;;;;4.93;2.10;;;;;;;6.35;80.75;100088.47;5036857;28;20833;-85
2023/11/13 01:10:13;;;;;;;5.23;2.20;;;;;;;6.40;80.62;100099.66;5036487;28;20219;-85
2023/11/13 01:12:39;;;;;;;2.40;2.20;;;;;;;6.27;80.32;100101.47;5035863;28;20647;-87
2023/11/13 01:15:08;;;;;;;4.30;2.07;;;;;;;6.24;81.22;100091.13;5035429;28;20694;-83
2023/11/13 01:17:35;;;;;;;3.03;2.50;;;;;;;6.19;82.06;100085.13;5035982;28;20206;-85
2023/11/13 01:20:02;;;;;;;2.20;2.00;;;;;;;6.24;82.34;100074.72;5036345;28;20240;-87
2023/11/13 01:22:31;;;;;;;4.47;2.00;;;;;;;6.28;81.66;100059.16;5034918;28;20218;-86
2023/11/13 01:24:57;;;;;;;9.50;2.40;;;;;;;6.29;81.66;100060.00;5036714;28;20224;-85
2023/11/13 01:27:24;;;;;;;2.30;2.10;;;;;;;6.23;80.82;100076.47;5036935;28;20205;-86
2023/11/13 01:29:50;;;;;;;3.80;2.03;;;;;;;6.24;81.18;100074.72;5036945;28;20212;-86
2023/11/13 01:32:17;;;;;;;2.60;2.40;;;;;;;6.22;80.80;100074.72;5036461;28;20225;-86
2023/11/13 01:34:43;;;;;;;3.03;2.10;;;;;;;6.21;81.95;100060.06;5036289;28;20207;-85
2023/11/13 01:37:10;;;;;;;2.47;2.27;;;;;;;6.24;81.38;100056.56;5035854;28;20318;-85
2023/11/13 01:39:38;;;;;;;4.67;2.27;;;;;;;6.25;80.70;100060.91;5036547;28;20220;-85
2023/11/13 01:42:05;;;;;;;3.80;2.37;;;;;;;6.22;81.85;100056.56;5036098;28;20228;-86
2023/11/13 01:44:31;;;;;;;3.77;1.97;;;;;;;6.27;81.37;100041.88;5034745;28;20216;-86
2023/11/13 01:46:58;;;;;;;2.20;2.00;;;;;;;6.30;81.45;100044.44;5034546;28;20201;-87
2023/11/13 01:49:25;;;;;;;6.03;1.97;;;;;;;6.20;82.01;100042.78;5035645;28;20240;-85
2023/11/13 01:51:54;;;;;;;3.13;2.20;;;;;;;6.23;82.06;100035.00;5035167;28;20227;-87
2023/11/13 01:54:23;;;;;;;2.20;2.00;;;;;;;6.24;81.21;100030.66;5035176;28;20285;-86
2023/11/13 01:56:51;;;;;;;2.97;2.07;;;;;;;6.22;81.81;100028.06;5035810;28;20233;-85
2023/11/13 01:59:20;;;;;;;3.70;2.40;;;;;;;6.24;82.54;100028.06;5014915;28;20244;-85
2023/11/13 02:01:48;;;;;;;3.37;2.33;;;;;;;6.25;81.78;100048.78;5016007;28;20238;-87
2023/11/13 02:04:14;;;;;;;5.13;2.13;;;;;;;6.27;81.46;100048.78;5015399;28;20209;-87
2023/11/13 02:06:42;;;;;;;3.17;2.43;;;;;;;6.21;82.00;100041.91;5014649;28;20213;-86
2023/11/13 02:09:10;;;;;;;3.80;2.40;;;;;;;6.22;81.49;100035.84;5015527;28;20211;-86
2023/11/13 02:11:37;;;;;;;2.63;2.43;;;;;;;6.19;81.38;100048.00;5015440;28;20232;-85
2023/11/13 02:14:06;;;;;;;8.17;2.50;;;;;;;6.17;81.14;100058.38;5015624;28;20221;-85
2023/11/13 02:16:33;;;;;;;2.67;2.47;;;;;;;6.18;81.12;100054.88;5016595;28;20649;-87
2023/11/13 02:18:59;;;;;;;4.20;2.30;;;;;;;6.14;80.91;100069.63;5015220;28;20214;-87
2023/11/13 02:21:25;;;;;;;2.20;2.00;;;;;;;6.17;80.95;100068.72;5029384;28;20226;-86
2023/11/13 02:23:55;;;;;;;7.07;2.90;;;;;;;6.10;81.02;100067.03;5035249;28;20202;-85
2023/11/13 02:26:23;;;;;;;3.40;2.70;;;;;;;6.10;81.14;100059.25;5035727;28;20586;-87
2023/11/13 02:28:50;;;;;;;3.50;2.37;;;;;;;6.09;81.06;100060.16;5040384;28;20225;-85
2023/11/13 02:31:17;;;;;;;8.97;2.73;;;;;;;6.07;81.44;100057.56;5039472;28;20736;-85
2023/11/13 02:33:43;;;;;;;2.40;2.20;;;;;;;6.09;81.23;100050.63;5039419;28;20559;-85
2023/11/13 02:36:10;;;;;;;3.13;2.50;;;;;;;6.06;80.63;100048.06;5039886;28;20223;-85
2023/11/13 02:38:36;;;;;;;3.07;2.20;;;;;;;6.03;80.71;100042.91;5039855;28;20206;-87
2023/11/13 02:41:04;;;;;;;4.40;2.67;;;;;;;5.94;80.97;100050.69;5039558;28;20739;-86
2023/11/13 02:43:31;;;;;;;3.47;3.17;;;;;;;5.93;80.98;100046.41;5038602;28;20212;-87
2023/11/13 02:45:57;;;;;;;4.80;2.47;;;;;;;5.93;80.79;100036.91;5039691;28;20210;-85
2023/11/13 02:48:24;;;;;;;2.67;2.20;;;;;;;5.95;80.69;100036.94;5040034;28;20214;-85
2023/11/13 02:50:50;;;;;;;5.43;2.73;;;;;;;5.95;82.06;100031.75;5039614;28;20225;-86
2023/11/13 02:53:17;;;;;;;3.63;2.17;;;;;;;5.94;82.01;100023.06;5039430;28;20581;-85
2023/11/13 02:55:43;;;;;;;2.17;1.97;;;;;;;5.94;82.50;100009.25;5039915;28;20233;-86
2023/11/13 02:58:11;;;;;;;3.40;2.13;;;;;;;5.97;82.10;99989.41;5039504;28;20216;-84
2023/11/13 03:00:37;;;;;;;7.90;2.33;;;;;;;6.02;82.80;99985.91;5039710;28;20228;-86
2023/11/13 03:03:04;;;;;;;2.40;2.20;;;;;;;6.05;82.30;99975.53;5040278;28;20586;-86
2023/11/13 03:05:30;;;;;;;4.43;2.70;;;;;;;6.01;82.26;99966.94;5039501;28;20203;-84
2023/11/13 03:07:57;;;;;;;3.40;2.23;;;;;;;5.95;82.51;99969.56;5040099;28;20204;-86
2023/11/13 03:10:24;;;;;;;3.30;2.30;;;;;;;6.00;82.64;99960.00;5040066;28;20239;-85
2023/11/13 03:12:51;;;;;;;2.63;2.43;;;;;;;6.07;82.45;99971.22;5039226;28;20319;-86
2023/11/13 03:15:19;;;;;;;3.90;2.80;;;;;;;6.07;82.02;99973.81;5039142;28;20207;-86
2023/11/13 03:17:45;;;;;;;2.50;2.30;;;;;;;5.94;82.69;99997.16;5039401;28;20605;-84
2023/11/13 03:20:12;;;;;;;5.13;2.67;;;;;;;5.94;82.25;99996.31;5039256;28;20213;-85
2023/11/13 03:22:39;;;;;;;4.63;3.30;;;;;;;5.89;83.43;99996.34;5039281;28;20199;-86
2023/11/13 03:25:06;;;;;;;3.70;3.03;;;;;;;5.93;83.35;99995.44;5040820;28;20199;-84
2023/11/13 03:27:32;;;;;;;3.83;2.43;;;;;;;6.02;82.67;99997.13;5043476;28;20209;-85
2023/11/13 03:29:59;;;;;;;4.27;2.67;;;;;;;6.01;82.49;99997.16;5039886;28;20671;-85
2023/11/13 03:32:27;;;;;;;3.50;3.20;;;;;;;6.02;82.68;99989.34;5039745;28;20202;-86
2023/11/13 03:34:54;;;;;;;3.43;3.13;;;;;;;5.99;83.14;99989.41;5039428;28;20212;-86
2023/11/13 03:37:20;;;;;;;3.83;2.90;;;;;;;5.99;83.27;99965.22;5037473;28;20286;-85
2023/11/13 03:39:47;;;;;;;3.40;3.00;;;;;;;6.01;83.00;99958.31;5036547;28;20219;-86
2023/11/13 03:42:14;;;;;;;4.80;3.07;;;;;;;6.03;83.77;99956.56;5037423;28;20225;-87
2023/11/13 03:44:41;;;;;;;4.23;2.80;;;;;;;6.06;83.61;99954.78;5037544;28;20586;-86
2023/11/13 03:47:08;;;;;;;3.67;3.23;;;;;;;6.02;82.95;99967.78;5037667;28;20212;-87
2023/11/13 03:49:36;;;;;;;3.60;2.90;;;;;;;6.06;82.95;99959.97;5037915;28;20243;-86
2023/11/13 03:52:03;;;;;;;3.63;3.13;;;;;;;6.07;83.11;99963.44;5036713;28;20228;-87
2023/11/13 03:54:29;;;;;;;3.00;2.70;;;;;;;6.04;82.98;99961.72;5037258;28;20703;-85
2023/11/13 03:56:57;;;;;;;3.27;2.93;;;;;;;5.99;83.59;99955.72;5037990;28;20231;-85
2023/11/13 03:59:24;;;;;;;3.50;3.20;;;;;;;5.94;83.80;99949.66;5037517;28;20210;-85
2023/11/13 04:01:50;;;;;;;4.40;3.00;;;;;;;5.94;84.29;99940.16;5037558;28;20728;-86
2023/11/13 04:04:16;;;;;;;3.77;3.00;;;;;;;5.74;82.82;99947.25;5037732;28;20235;-86
2023/11/13 04:06:44;;;;;;;5.67;3.00;;;;;;;5.93;83.14;99935.03;5037935;28;20291;-86
2023/11/13 04:09:11;;;;;;;4.27;3.23;;;;;;;5.99;83.33;99940.19;5037291;28;20214;-86
2023/11/13 04:11:38;;;;;;;2.97;2.77;;;;;;;6.02;83.31;99934.94;5036834;28;20716;-86
2023/11/13 04:14:04;;;;;;;5.10;2.70;;;;;;;6.04;83.30;99948.75;5040375;28;20216;-84
2023/11/13 04:16:30;;;;;;;5.90;3.50;;;;;;;5.98;82.98;99946.22;5052461;28;20228;-84
2023/11/13 04:18:57;;;;;;;4.33;3.00;;;;;;;5.84;84.09;99951.47;5052368;28;20207;-84
2023/11/13 04:21:23;;;;;;;5.33;3.57;;;;;;;5.94;83.79;99939.31;5052499;28;20274;-84
2023/11/13 04:23:51;;;;;;;4.13;3.70;;;;;;;5.99;84.53;99947.09;5053155;28;20283;-84
2023/11/13 04:26:18;;;;;;;4.17;3.77;;;;;;;5.99;84.34;99937.59;5052695;28;20219;-84
2023/11/13 04:28:44;;;;;;;4.10;3.70;;;;;;;6.07;83.77;99934.94;5052336;28;20214;-85
2023/11/13 04:31:14;;;;;;;5.10;3.30;;;;;;;6.08;83.58;99939.22;5051548;28;20228;-84
2023/11/13 04:33:41;;;;;;;4.10;3.70;;;;;;;6.16;82.70;99940.03;5051482;28;20200;-84
2023/11/13 04:36:09;;;;;;;7.57;3.67;;;;;;;6.13;83.70;99940.91;5052342;28;20387;-84
2023/11/13 04:38:37;;;;;;;3.40;3.10;;;;;;;6.16;83.58;99937.44;5054607;28;20236;-83
2023/11/13 04:41:05;;;;;;;4.77;3.40;;;;;;;6.16;83.14;99932.25;5056101;28;20243;-85
2023/11/13 04:43:32;;;;;;;5.87;3.33;;;;;;;6.15;83.12;99925.34;5048479;28;20252;-85
2023/11/13 04:45:58;;;;;;;4.10;3.10;;;;;;;6.19;83.28;99915.81;5037287;28;20221;-85
2023/11/13 04:48:25;;;;;;;4.47;3.37;;;;;;;6.14;83.40;99908.97;5037607;28;20215;-86
2023/11/13 04:50:53;;;;;;;4.73;3.53;;;;;;;6.09;83.94;99915.91;5037067;28;20228;-85
2023/11/13 04:53:20;;;;;;;3.80;3.40;;;;;;;6.11;83.81;99908.13;5037961;28;20281;-86
2023/11/13 04:55:46;;;;;;;3.47;3.17;;;;;;;6.12;84.06;99904.63;5036523;28;20209;-83
2023/11/13 04:58:14;;;;;;;8.17;3.50;;;;;;;6.12;84.10;99900.31;5035293;28;20237;-84
2023/11/13 05:00:41;;;;;;;4.83;3.30;;;;;;;6.15;84.02;99896.84;5034560;28;20232;-83
2023/11/13 05:03:07;;;;;;;4.83;3.60;;;;;;;6.16;83.64;99904.63;5035129;28;20216;-85
2023/11/13 05:05:36;;;;;;;5.07;3.63;;;;;;;6.16;83.53;99912.41;5034935;28;20274;-84
2023/11/13 05:08:03;;;;;;;3.40;3.10;;;;;;;6.22;83.66;99931.34;5035845;28;20671;-85
2023/11/13 05:10:29;;;;;;;4.27;3.53;;;;;;;6.16;83.69;99937.44;5035825;28;20222;-83
2023/11/13 05:12:56;;;;;;;4.57;3.40;;;;;;;6.23;83.73;99928.72;5034660;28;20217;-84
2023/11/13 05:15:24;;;;;;;4.10;3.77;;;;;;;6.21;84.71;99925.28;5034528;28;20295;-87
2023/11/13 05:17:50;;;;;;;4.20;3.80;;;;;;;6.17;84.62;99921.03;5034732;28;20231;-84
2023/11/13 05:20:17;;;;;;;4.73;4.23;;;;;;;6.19;84.92;99916.69;5034726;28;20245;-84
2023/11/13 05:22:44;;;;;;;4.40;3.80;;;;;;;6.27;84.49;99907.09;5034568;28;20574;-84
2023/11/13 05:25:11;;;;;;;4.47;3.87;;;;;;;6.25;85.05;99914.03;5035091;28;20220;-84
2023/11/13 05:27:38;;;;;;;4.57;4.10;;;;;;;6.24;84.50;99909.69;5034628;28;20205;-86
2023/11/13 05:30:07;;;;;;;6.60;4.50;;;;;;;6.28;84.81;99890.69;5034391;28;20211;-84
2023/11/13 05:32:35;;;;;;;4.80;3.80;;;;;;;6.33;85.08;99882.84;5034341;28;20215;-86
2023/11/13 05:35:02;;;;;;;4.83;4.00;;;;;;;6.33;84.70;99878.50;5034621;28;20582;-86
2023/11/13 05:37:28;;;;;;;5.67;3.83;;;;;;;6.36;84.58;99877.63;5034521;28;20228;-86
2023/11/13 05:39:55;;;;;;;5.03;4.03;;;;;;;6.38;84.76;99888.81;5034446;28;20268;-84
2023/11/13 05:42:23;;;;;;;4.03;3.20;;;;;;;6.33;85.11;99880.25;5034317;28;20246;-86
2023/11/13 05:44:49;;;;;;;5.83;3.63;;;;;;;6.40;84.95;99873.25;5037696;28;20217;-85
2023/11/13 05:47:17;;;;;;;4.27;3.87;;;;;;;6.41;84.32;99869.81;5043893;28;20202;-83
2023/11/13 05:49:44;;;;;;;4.13;3.77;;;;;;;6.38;84.43;99877.59;5034494;28;20216;-86
2023/11/13 05:52:11;;;;;;;5.63;3.90;;;;;;;6.39;83.98;99871.56;5034096;28;20232;-86
2023/11/13 05:54:38;;;;;;;4.67;4.17;;;;;;;6.42;83.63;99874.09;5033834;28;20208;-85
2023/11/13 05:57:05;;;;;;;4.93;4.13;;;;;;;6.34;83.48;99871.59;5034459;28;20230;-84
2023/11/13 05:59:31;;;;;;;4.80;4.20;;;;;;;6.37;83.06;99866.38;5033822;28;20210;-85
2023/11/13 06:01:58;;;;;;;5.57;4.57;;;;;;;6.34;83.75;99861.22;5033011;28;20619;-85
2023/11/13 06:04:24;;;;;;;5.00;4.50;;;;;;;6.35;84.13;99862.94;5034134;28;20217;-84
2023/11/13 06:06:52;;;;;;;4.40;4.00;;;;;;;6.38;83.01;99867.25;5033761;28;20293;-84
2023/11/13 06:09:18;;;;;;;6.47;4.30;;;;;;;6.38;83.32;99875.88;5033746;28;20220;-84
2023/11/13 06:11:45;;;;;;;5.63;4.07;;;;;;;6.30;83.07;99870.78;5034133;28;20225;-84
2023/11/13 06:14:12;;;;;;;5.00;4.43;;;;;;;6.29;84.03;99863.03;5034751;28;20772;-85
2023/11/13 06:16:38;;;;;;;4.90;4.40;;;;;;;6.29;83.98;99853.50;5032773;28;20234;-83
2023/11/13 06:19:07;;;;;;;4.77;4.27;;;;;;;6.36;83.72;99857.75;5033592;28;20218;-84
2023/11/13 06:21:34;;;;;;;4.67;4.17;;;;;;;6.33;84.23;99849.16;5034366;28;20253;-83
2023/11/13 06:24:03;;;;;;;5.63;4.87;;;;;;;6.34;84.04;99843.06;5033614;28;20237;-85
2023/11/13 06:26:30;;;;;;;4.80;4.40;;;;;;;6.36;84.06;99842.22;5034110;28;20588;-84
2023/11/13 06:28:56;;;;;;;5.23;4.43;;;;;;;6.39;84.32;99848.22;5034539;28;20206;-85
2023/11/13 06:31:23;;;;;;;8.93;4.70;;;;;;;6.42;83.95;99832.63;5034460;28;20218;-86
2023/11/13 06:33:50;;;;;;;4.40;4.00;;;;;;;6.42;84.36;99849.06;5034587;28;20233;-85
2023/11/13 06:36:16;;;;;;;5.57;5.00;;;;;;;6.44;83.60;99849.03;5034046;28;20218;-85
2023/11/13 06:38:43;;;;;;;8.63;4.80;;;;;;;6.46;83.40;99844.66;5034053;28;20222;-84
2023/11/13 06:41:11;;;;;;;5.27;4.73;;;;;;;6.48;83.24;99850.69;5033936;28;20612;-84
2023/11/13 06:43:37;;;;;;;5.93;5.27;;;;;;;6.49;83.67;99842.06;5033825;28;20210;-85
2023/11/13 06:46:04;;;;;;;6.20;5.67;;;;;;;6.50;83.12;99846.34;5033234;28;20202;-88
2023/11/13 06:48:32;;;;;;;5.80;5.27;;;;;;;6.46;83.94;99842.97;5033102;28;20223;-88
2023/11/13 06:50:58;;;;;;;6.60;5.87;;;;;;;6.48;83.95;99837.72;5033566;28;20255;-86
2023/11/13 06:53:25;;;;;;;6.50;5.43;;;;;;;6.48;83.75;99840.31;5033736;28;20213;-84
2023/11/13 06:55:52;;;;;;;5.73;5.23;;;;;;;6.49;83.29;99827.34;5034004;28;20214;-87
2023/11/13 06:58:22;;;;;;;7.03;5.87;;;;;;;6.55;83.42;99836.78;5034131;28;20236;-83
2023/11/13 07:00:49;;;;;;;6.60;5.73;;;;;;;6.52;84.00;99840.28;5034581;28;20226;-83
2023/11/13 07:03:15;;;;;;;8.03;5.80;;;;;;;6.59;83.63;99830.69;5033437;28;20259;-86
2023/11/13 07:05:42;;;;;;;6.93;6.23;;;;;;;6.65;84.30;99816.78;5033180;28;20576;-86
2023/11/13 07:08:09;;;;;;;7.07;6.37;;;;;;;6.60;84.17;99809.09;5033502;28;20213;-85
2023/11/13 07:10:38;;;;;;;9.00;6.93;;;;;;;6.53;83.79;99797.91;5033592;28;20636;-85
2023/11/13 07:13:10;;;;;;;8.50;6.43;;;;;;;6.54;85.30;99780.63;5033608;28;20215;-89
2023/11/13 07:15:38;;;;;;;7.13;6.50;;;;;;;6.62;85.28;99763.25;5037563;28;20206;-87
2023/11/13 07:18:05;;;;;;;6.70;6.10;;;;;;;6.69;85.15;99751.03;5036788;28;20237;-85
2023/11/13 07:20:32;;;;;;;7.30;6.63;;;;;;;6.71;84.91;99750.13;5036842;28;20575;-84
2023/11/13 07:22:59;;;;;;;7.90;7.17;;;;;;;6.72;84.68;99761.38;5036150;28;20210;-85
2023/11/13 07:25:31;;;;;;;7.23;6.63;;;;;;;6.74;84.02;99760.47;5036557;28;20215;-84
2023/11/13 07:27:57;;;;;;;8.47;6.73;;;;;;;6.82;83.67;99770.75;5038198;28;20293;-85
2023/11/13 07:30:26;;;;;;;8.07;7.10;;;;;;;6.89;83.49;99776.69;5037862;28;20728;-83
2023/11/13 07:32:53;;;;;;;10.77;7.20;;;;;;;6.92;84.19;99779.25;5036897;28;20268;-86
2023/11/13 07:35:20;;;;;;;8.57;7.00;;;;;;;6.95;83.15;99781.78;5038244;28;20214;-85
2023/11/13 07:37:46;;;;;;;6.93;6.33;;;;;;;7.02;83.59;99790.34;5039284;28;20296;-84
2023/11/13 07:40:14;;;;;;;8.50;6.83;;;;;;;7.09;83.77;99787.63;5050083;28;20579;-86
2023/11/13 07:42:41;;;;;;;7.30;6.70;;;;;;;7.12;84.39;99782.38;5037295;28;20588;-85
2023/11/13 07:45:09;;;;;;;8.80;6.83;;;;;;;7.22;84.66;99788.28;5037020;28;20212;-85
2023/11/13 07:47:39;;;;;;;8.00;7.00;;;;;;;7.27;83.59;99794.25;5037788;28;20206;-85
2023/11/13 07:50:11;;;;;;;7.80;7.10;;;;;;;7.31;83.63;99823.63;5037465;28;20210;-82
2023/11/13 07:52:41;;;;;;;10.63;8.17;;;;;;;7.36;83.69;99817.50;5037381;28;20600;-83
2023/11/13 07:55:09;;;;;;;9.37;8.53;;;;;;;7.36;83.27;99817.50;5038424;28;20221;-85
2023/11/13 07:57:37;;;;;;;8.33;7.53;;;;;;;7.43;83.67;99817.38;5037965;28;20226;-83
2023/11/13 08:00:09;;;;;;;8.40;7.60;;;;;;;7.47;83.31;99819.03;5037660;28;20210;-83
2023/11/13 08:02:36;;;;;;;9.03;8.13;;;;;;;7.51;83.48;99816.41;5038262;28;20260;-83
2023/11/13 08:05:03;;;;;;;8.03;7.33;;;;;;;7.52;83.30;99817.25;5037518;28;20217;-85
2023/11/13 08:07:31;;;;;;;9.07;8.20;;;;;;;7.55;82.96;99815.47;5036875;28;20661;-86
2023/11/13 08:10:01;;;;;;;8.23;7.20;;;;;;;7.55;82.71;99812.88;5036888;28;20202;-85
2023/11/13 08:12:28;;;;;;;12.43;8.63;;;;;;;7.65;82.42;99810.09;5036549;28;20211;-84
2023/11/13 08:14:55;;;;;;;10.70;7.60;;;;;;;7.68;82.42;99817.84;5037350;28;20260;-86
2023/11/13 08:17:22;;;;;;;8.40;7.60;;;;;;;7.69;82.73;99816.94;5037568;28;20237;-84
2023/11/13 08:19:48;;;;;;;9.17;7.23;;;;;;;7.70;82.49;99814.31;5036572;28;20673;-84
2023/11/13 08:22:15;;;;;;;7.97;7.20;;;;;;;7.68;82.98;99797.06;5035670;28;20222;-84
2023/11/13 08:24:42;;;;;;;7.73;7.03;;;;;;;7.74;83.14;99789.16;5036149;28;20218;-84
2023/11/13 08:27:09;;;;;;;8.30;7.50;;;;;;;7.79;83.54;99782.16;5036617;28;20708;-84
2023/11/13 08:29:35;;;;;;;7.93;7.20;;;;;;;7.79;82.93;99763.97;5036045;28;20206;-83
2023/11/13 08:32:02;;;;;;;7.53;6.83;;;;;;;7.83;83.10;99763.03;5035468;28;20222;-86
2023/11/13 08:34:28;;;;;;;8.37;7.63;;;;;;;7.89;83.21;99755.09;5035094;28;20209;-87
2023/11/13 08:36:55;;;;;;;8.10;7.30;;;;;;;7.80;83.50;99739.69;5035215;28;20209;-84
2023/11/13 08:39:22;;;;;;;8.73;7.83;;;;;;;7.90;82.53;99743.81;5034973;28;20234;-85
2023/11/13 08:41:55;;;;;;;7.67;7.00;;;;;;;7.98;82.30;99758.41;5034836;28;20236;-85
2023/11/13 08:44:24;;;;;;;7.67;6.80;;;;;;;7.94;82.72;99763.66;5040945;28;20209;-85
2023/11/13 08:46:51;;;;;;;7.80;7.00;;;;;;;7.94;82.99;99748.06;5045216;28;20217;-84
2023/11/13 08:49:17;;;;;;;8.80;7.90;;;;;;;7.81;83.64;99750.91;5042718;28;20206;-86
2023/11/13 08:51:44;;;;;;;7.83;7.03;;;;;;;7.90;83.97;99722.19;5036011;28;20249;-84
2023/11/13 08:54:11;;;;;;;8.93;8.13;;;;;;;8.00;83.98;99721.09;5017931;28;20579;-84
2023/11/13 08:56:37;;;;;;;9.30;7.20;;;;;;;8.08;83.42;99729.59;5017569;28;20242;-83
2023/11/13 08:59:07;;;;;;;8.10;7.30;;;;;;;8.15;83.56;99730.34;5018817;28;20717;-87
2023/11/13 09:01:35;;;;;;;7.30;6.67;;;;;;;8.06;82.68;99728.78;5019133;28;20298;-83
2023/11/13 09:04:02;;;;;;;8.13;7.43;;;;;;;8.18;82.94;99712.06;5016730;28;20265;-85
2023/11/13 09:06:31;;;;;;;7.90;7.30;;;;;;;8.14;83.62;99705.22;5016820;28;20215;-84
2023/11/13 09:08:59;;;;;;;8.17;7.17;;;;;;;8.22;82.35;99710.28;5016204;28;20749;-83
2023/11/13 09:11:28;;;;;;;7.37;6.57;;;;;;;8.30;81.43;99731.75;5015123;28;20227;-87
2023/11/13 09:13:55;;;;;;;8.20;7.50;;;;;;;8.30;81.00;99742.16;5014085;28;20213;-83
2023/11/13 09:16:23;;;;;;;7.03;6.20;;;;;;;8.29;81.68;99738.72;5015425;28;20242;-86
2023/11/13 09:18:50;;;;;;;7.87;7.17;;;;;;;8.33;80.96;99729.09;5016903;28;20771;-87
2023/11/13 09:21:18;;;;;;;7.10;6.50;;;;;;;8.32;80.59;99743.88;5030181;28;20705;-84
2023/11/13 09:23:45;;;;;;;7.47;6.87;;;;;;;8.28;81.16;99739.59;5044885;28;20194;-89
2023/11/13 09:26:12;;;;;;;7.13;6.53;;;;;;;8.30;80.79;99732.59;5056862;28;20277;-86
2023/11/13 09:28:38;;;;;;;7.80;7.07;;;;;;;8.38;81.35;99710.78;5050480;28;20202;-85
2023/11/13 09:31:05;;;;;;;7.23;6.63;;;;;;;8.42;80.91;99705.53;5040189;28;20747;-85
2023/11/13 09:33:34;;;;;;;7.03;6.23;;;;;;;8.48;81.64;99695.00;5039603;28;20210;-86
2023/11/13 09:36:00;;;;;;;6.90;6.33;;;;;;;8.52;81.88;99678.44;5042498;28;20210;-85
2023/11/13 09:38:27;;;;;;;7.30;6.80;;;;;;;8.55;81.04;99701.75;5041439;28;20225;-86
2023/11/13 09:40:59;;;;;;;8.17;7.37;;;;;;;8.57;81.29;99703.50;5041095;28;20226;-86
2023/11/13 09:43:31;;;;;;;7.67;7.07;;;;;;;8.58;81.66;99716.44;5041218;28;20202;-87
2023/11/13 09:45:58;;;;;;;7.60;6.90;;;;;;;8.65;82.14;99696.38;5042781;28;20206;-87
2023/11/13 09:48:30;;;;;;;6.87;6.27;;;;;;;8.66;81.73;99700.66;5038670;28;20202;-88
2023/11/13 09:50:58;;;;;;;7.10;6.50;;;;;;;8.69;81.68;99700.59;5036090;28;20229;-87
2023/11/13 09:53:26;;;;;;;6.70;6.20;;;;;;;8.46;83.26;99686.38;5040047;28;20260;-87
2023/11/13 09:55:54;;;;;;;9.53;7.13;;;;;;;8.48;83.77;99660.31;5035941;28;20210;-87
2023/11/13 09:58:21;;;;;;;8.60;7.90;;;;;;;8.54;84.69;99641.97;5036532;28;20229;-88
2023/11/13 10:00:48;;;;;;;8.10;7.40;;;;;;;8.45;85.63;99609.25;5036278;28;20224;-86
2023/11/13 10:03:14;;;;;;;8.47;7.57;;;;;;;8.43;85.69;99595.41;5036361;28;20214;-88
2023/11/13 10:05:42;;;;;;;8.00;7.30;;;;;;;8.47;86.06;99583.19;5037347;28;20202;-86
2023/11/13 10:08:11;;;;;;;7.07;6.23;;;;;;;8.14;87.45;99555.31;5037242;28;20202;-86
2023/11/13 10:10:39;;;;;;;8.00;7.27;;;;;;;8.21;87.97;99539.59;5037399;28;20321;-86
2023/11/13 10:13:10;;;;;;;7.53;6.90;;;;;;;8.12;88.16;99525.91;5040228;28;20301;-86
2023/11/13 10:15:41;;;;;;;9.10;7.07;;;;;;;8.11;88.16;99500.81;5037637;28;20217;-87
2023/11/13 10:18:08;;;;;;;7.83;7.03;;;;;;;8.25;88.19;99494.44;5037243;28;20211;-86
2023/11/13 10:20:41;;;;;;;6.63;6.13;;;;;;;8.29;88.59;99488.25;5036313;28;20218;-87
2023/11/13 10:23:09;;;;;;;6.70;6.10;;;;;;;8.32;88.83;99475.16;5036082;28;20213;-86
2023/11/13 10:25:45;;;;;;;6.77;6.13;;;;;;;8.34;88.18;99479.47;5035776;28;20206;-85
2023/11/13 10:28:13;;;;;;;6.77;6.17;;;;;;;8.15;88.25;99483.41;5036237;28;20299;-86
2023/11/13 10:30:56;;;;;;;6.97;6.40;;;;;;;8.25;88.10;99473.63;5036646;28;20280;-88
2023/11/13 10:33:22;;;;;;;6.73;6.13;;;;;;;8.10;89.43;99461.84;5037048;28;20279;-84
2023/11/13 10:35:50;;;;;;;5.93;5.50;;;;;;;7.92;89.09;99458.81;5037684;28;20202;-85
2023/11/13 10:38:20;;;;;;;6.80;6.20;;;;;;;7.84;89.43;99445.16;5037212;28;20279;-87
2023/11/13 10:40:55;;;;;;;6.90;6.30;;;;;;;8.06;89.74;99423.84;5038093;28;20229;-86
2023/11/13 10:43:28;;;;;;;6.73;6.23;;;;;;;8.21;88.88;99413.06;5037269;28;20213;-85
2023/11/13 10:45:55;;;;;;;6.80;6.20;;;;;;;8.19;88.97;99421.81;5037802;28;20198;-86
2023/11/13 10:48:22;;;;;;;7.10;6.50;;;;;;;8.22;88.27;99426.91;5039293;28;20555;-87
2023/11/13 10:50:49;;;;;;;7.10;6.50;;;;;;;8.15;88.46;99434.00;5042130;28;20231;-86
2023/11/13 10:53:17;;;;;;;7.27;6.57;;;;;;;8.16;89.63;99413.16;5040611;28;20218;-87
2023/11/13 10:55:45;;;;;;;7.17;6.47;;;;;;;8.15;89.45;99408.88;5041261;28;20202;-86
2023/11/13 10:58:11;;;;;;;7.17;6.47;;;;;;;8.19;89.60;99386.25;5040734;28;20234;-86
2023/11/13 11:00:40;;;;;;;7.67;6.97;;;;;;;8.17;89.91;99388.03;5040352;28;20721;-85
2023/11/13 11:03:10;;;;;;;8.23;6.43;;;;;;;8.31;90.53;99375.53;5039888;28;20202;-87
2023/11/13 11:05:39;;;;;;;6.40;5.90;;;;;;;8.46;90.44;99353.50;5040258;28;20232;-86
2023/11/13 11:08:05;;;;;;;9.40;6.17;;;;;;;8.47;90.05;99351.75;5040208;28;20207;-85
2023/11/13 11:10:33;;;;;;;5.60;5.10;;;;;;;8.55;90.28;99350.63;5041014;28;20659;-85
2023/11/13 11:13:06;;;;;;;7.33;6.23;;;;;;;8.54;90.32;99343.72;5041612;28;20209;-88
2023/11/13 11:16:06;;;;;;;6.90;6.40;;;;;;;8.60;90.39;99324.47;5058755;28;20222;-88
2023/11/13 11:18:41;;;;;;;11.27;7.57;;;;;;;8.50;91.66;99304.81;5060748;28;20230;-86
2023/11/13 11:21:19;;;;;;;6.00;5.60;;;;;;;8.41;91.75;99289.47;5060545;28;20226;-85
2023/11/13 11:23:51;;;;;;;5.23;4.80;;;;;;;8.58;91.87;99283.81;5058930;28;20224;-84
2023/11/13 11:26:19;;;;;;;5.87;5.37;;;;;;;8.57;91.59;99288.16;5048561;28;20206;-86
2023/11/13 11:28:48;;;;;;;6.30;5.73;;;;;;;8.55;92.30;99263.94;5038225;28;20209;-84
2023/11/13 11:31:45;;;;;;;5.53;5.13;;;;;;;8.54;92.16;99265.69;5037789;28;20659;-87
2023/11/13 11:34:19;;;;;;;6.07;5.50;;;;;;;8.67;92.62;99255.75;5038577;28;20210;-84
2023/11/13 11:36:46;;;;;;;5.30;4.90;;;;;;;8.75;92.59;99238.16;5036779;28;20642;-86
2023/11/13 11:39:15;;;;;;;5.43;4.87;;;;;;;8.85;91.91;99228.31;5036802;28;20226;-84
2023/11/13 11:41:42;;;;;;;4.97;4.53;;;;;;;8.84;92.21;99229.25;5035951;28;20226;-86